createdAt,value
2018-06-24T00:00:15.137Z,9.4
2018-06-24T00:01:05.191Z,9.4
2018-06-24T00:01:55.256Z,9.4
2018-06-24T00:02:45.051Z,9.4
2018-06-24T00:03:35.382Z,9.4
2018-06-24T00:04:25.444Z,9.4
2018-06-24T00:05:15.518Z,9.4
2018-06-24T00:06:05.579Z,9.3
2018-06-24T00:06:55.646Z,9.3
2018-06-24T00:07:45.694Z,9.3
2018-06-24T00:08:35.758Z,9.3
2018-06-24T00:09:25.540Z,9.3
2018-06-24T00:10:15.894Z,9.3
2018-06-24T00:11:05.973Z,9.2
2018-06-24T00:11:56.012Z,9.2
2018-06-24T00:12:46.083Z,9.2
2018-06-24T00:13:36.132Z,9.1
2018-06-24T00:14:25.930Z,9.1
2018-06-24T00:15:16.276Z,9.1
2018-06-24T00:16:06.310Z,9.1
2018-06-24T00:16:56.099Z,9.1
2018-06-24T00:17:46.444Z,9.1
2018-06-24T00:18:36.508Z,9
2018-06-24T00:19:26.584Z,9
2018-06-24T00:20:16.659Z,8.9
2018-06-24T00:21:06.697Z,8.9
2018-06-24T00:21:56.769Z,8.9
2018-06-24T00:22:46.816Z,8.9
2018-06-24T00:23:36.947Z,8.9
2018-06-24T00:24:26.950Z,8.9
2018-06-24T00:25:17.004Z,8.8
2018-06-24T00:26:07.083Z,8.8
2018-06-24T00:26:57.130Z,8.8
2018-06-24T00:27:47.188Z,8.8
2018-06-24T00:28:37.272Z,8.8
2018-06-24T00:29:27.375Z,8.7
2018-06-24T00:30:17.398Z,8.7
2018-06-24T00:31:07.461Z,8.7
2018-06-24T00:31:57.508Z,8.7
2018-06-24T00:32:47.296Z,8.6
2018-06-24T00:33:37.630Z,8.6
2018-06-24T00:34:27.698Z,8.6
2018-06-24T00:35:17.770Z,8.6
2018-06-24T00:36:07.581Z,8.6
2018-06-24T00:36:57.889Z,8.6
2018-06-24T00:37:47.971Z,8.5
2018-06-24T00:38:38.004Z,8.5
2018-06-24T00:39:28.095Z,8.5
2018-06-24T00:40:18.142Z,8.5
2018-06-24T00:41:08.205Z,8.4
2018-06-24T00:41:58.261Z,8.4
2018-06-24T00:42:48.339Z,8.4
2018-06-24T00:43:38.408Z,8.4
2018-06-24T00:44:28.464Z,8.4
2018-06-24T00:45:18.507Z,8.4
2018-06-24T00:46:08.577Z,8.4
2018-06-24T00:46:58.637Z,8.4
2018-06-24T00:47:48.706Z,8.4
2018-06-24T00:48:38.758Z,8.3
2018-06-24T00:49:28.825Z,8.3
2018-06-24T00:50:18.624Z,8.3
2018-06-24T00:51:08.659Z,8.3
2018-06-24T00:51:59.012Z,8.3
2018-06-24T00:52:49.087Z,8.3
2018-06-24T00:53:39.134Z,8.3
2018-06-24T00:54:28.929Z,8.3
2018-06-24T00:55:18.967Z,8.3
2018-06-24T00:56:09.321Z,8.3
2018-06-24T00:56:59.395Z,8.2
2018-06-24T00:57:49.436Z,8.2
2018-06-24T00:58:39.504Z,8.2
2018-06-24T00:59:29.286Z,8.2
2018-06-24T01:00:19.633Z,8.2
2018-06-24T01:01:09.702Z,8.2
2018-06-24T01:01:59.772Z,8.2
2018-06-24T01:02:49.825Z,8.1
2018-06-24T01:03:39.878Z,8.1
2018-06-24T01:04:29.945Z,8.1
2018-06-24T01:05:20.023Z,8.1
2018-06-24T01:06:10.086Z,8.1
2018-06-24T01:07:00.148Z,8.1
2018-06-24T01:07:50.219Z,8.1
2018-06-24T01:08:40.274Z,8.1
2018-06-24T01:09:30.341Z,8.1
2018-06-24T01:10:20.396Z,8.1
2018-06-24T01:11:09.900Z,8.1
2018-06-24T01:12:00.237Z,8.1
2018-06-24T01:12:50.595Z,8
2018-06-24T01:13:40.637Z,8.1
2018-06-24T01:14:30.692Z,8.1
2018-06-24T01:15:20.753Z,8
2018-06-24T01:16:10.822Z,8
2018-06-24T01:17:00.880Z,8
2018-06-24T01:17:50.965Z,8
2018-06-24T01:18:41.008Z,8
2018-06-24T01:19:31.074Z,8
2018-06-24T01:20:20.869Z,7.9
2018-06-24T01:21:10.917Z,8
2018-06-24T01:22:00.974Z,7.9
2018-06-24T01:22:51.342Z,7.9
2018-06-24T01:23:41.384Z,7.9
2018-06-24T01:24:31.458Z,7.9
2018-06-24T01:25:21.501Z,7.9
2018-06-24T01:26:11.581Z,7.9
2018-06-24T01:27:01.627Z,7.9
2018-06-24T01:27:51.695Z,7.9
2018-06-24T01:28:41.496Z,7.9
2018-06-24T01:29:31.854Z,7.9
2018-06-24T01:30:21.593Z,7.9
2018-06-24T01:31:11.687Z,7.8
2018-06-24T01:32:02.012Z,7.8
2018-06-24T01:32:52.074Z,7.8
2018-06-24T01:33:42.133Z,7.8
2018-06-24T01:34:32.198Z,7.8
2018-06-24T01:35:22.262Z,7.8
2018-06-24T01:36:12.317Z,7.8
2018-06-24T01:37:02.406Z,7.8
2018-06-24T01:37:52.459Z,7.8
2018-06-24T01:38:42.506Z,7.8
2018-06-24T01:39:32.585Z,7.7
2018-06-24T01:40:22.674Z,7.7
2018-06-24T01:41:12.686Z,7.7
2018-06-24T01:42:02.495Z,7.7
2018-06-24T01:42:52.814Z,7.6
2018-06-24T01:43:42.877Z,7.6
2018-06-24T01:44:32.976Z,7.6
2018-06-24T01:45:22.998Z,7.6
2018-06-24T01:46:13.081Z,7.6
2018-06-24T01:47:03.130Z,7.6
2018-06-24T01:47:53.186Z,7.6
2018-06-24T01:48:43.273Z,7.6
2018-06-24T01:49:33.106Z,7.6
2018-06-24T01:50:23.382Z,7.5
2018-06-24T01:51:13.186Z,7.5
2018-06-24T01:52:03.516Z,7.5
2018-06-24T01:52:53.000Z,7.5
2018-06-24T01:53:43.360Z,7.4
2018-06-24T01:54:33.179Z,7.4
2018-06-24T01:55:23.493Z,7.4
2018-06-24T01:56:13.820Z,7.4
2018-06-24T01:57:03.880Z,7.4
2018-06-24T01:57:53.958Z,7.4
2018-06-24T01:58:43.994Z,7.4
2018-06-24T01:59:34.082Z,7.3
2018-06-24T02:00:23.853Z,7.3
2018-06-24T02:01:14.185Z,7.3
2018-06-24T02:02:03.961Z,7.3
2018-06-24T02:02:54.323Z,7.3
2018-06-24T02:03:44.373Z,7.3
2018-06-24T02:04:34.452Z,7.3
2018-06-24T02:05:24.232Z,7.3
2018-06-24T02:06:14.575Z,7.2
2018-06-24T02:07:04.616Z,7.2
2018-06-24T02:07:53.836Z,7.2
2018-06-24T02:08:44.749Z,7.1
2018-06-24T02:09:34.241Z,7.1
2018-06-24T02:10:24.325Z,7.1
2018-06-24T02:11:14.673Z,7.1
2018-06-24T02:12:04.739Z,7.1
2018-06-24T02:12:54.799Z,7.1
2018-06-24T02:13:45.124Z,7.1
2018-06-24T02:14:35.219Z,7.1
2018-06-24T02:15:25.244Z,7
2018-06-24T02:16:15.324Z,7
2018-06-24T02:17:05.382Z,7
2018-06-24T02:17:55.429Z,6.9
2018-06-24T02:18:45.211Z,6.9
2018-06-24T02:19:35.554Z,6.9
2018-06-24T02:20:25.618Z,6.9
2018-06-24T02:21:15.406Z,6.9
2018-06-24T02:22:05.775Z,6.9
2018-06-24T02:22:55.538Z,6.9
2018-06-24T02:23:45.885Z,6.9
2018-06-24T02:24:35.669Z,6.8
2018-06-24T02:25:25.776Z,6.8
2018-06-24T02:26:16.052Z,6.8
2018-06-24T02:27:05.840Z,6.8
2018-06-24T02:27:56.176Z,6.8
2018-06-24T02:28:46.256Z,6.8
2018-06-24T02:29:36.293Z,6.8
2018-06-24T02:30:26.109Z,6.8
2018-06-24T02:31:16.428Z,6.7
2018-06-24T02:32:06.233Z,6.7
2018-06-24T02:32:56.270Z,6.7
2018-06-24T02:33:46.646Z,6.6
2018-06-24T02:34:36.412Z,6.6
2018-06-24T02:35:26.770Z,6.6
2018-06-24T02:36:16.799Z,6.6
2018-06-24T02:37:06.857Z,6.6
2018-06-24T02:37:56.648Z,6.6
2018-06-24T02:38:47.022Z,6.6
2018-06-24T02:39:37.043Z,6.6
2018-06-24T02:40:27.108Z,6.5
2018-06-24T02:41:17.169Z,6.5
2018-06-24T02:42:07.237Z,6.5
2018-06-24T02:42:57.312Z,6.5
2018-06-24T02:43:47.372Z,6.4
2018-06-24T02:44:37.419Z,6.4
2018-06-24T02:45:27.207Z,6.4
2018-06-24T02:46:17.547Z,6.4
2018-06-24T02:47:07.333Z,6.4
2018-06-24T02:47:57.410Z,6.4
2018-06-24T02:48:47.743Z,6.4
2018-06-24T02:49:37.839Z,6.3
2018-06-24T02:50:27.939Z,6.3
2018-06-24T02:51:17.378Z,6.3
2018-06-24T02:52:07.716Z,6.3
2018-06-24T02:52:57.784Z,6.3
2018-06-24T02:53:48.505Z,6.3
2018-06-24T02:54:38.203Z,6.3
2018-06-24T02:55:28.239Z,6.3
2018-06-24T02:56:18.308Z,6.3
2018-06-24T02:57:08.379Z,6.3
2018-06-24T02:57:58.423Z,6.2
2018-06-24T02:58:48.486Z,6.2
2018-06-24T02:59:38.301Z,6.2
2018-06-24T03:00:28.349Z,6.2
2018-06-24T03:01:18.390Z,6.2
2018-06-24T03:02:08.732Z,6.1
2018-06-24T03:02:58.232Z,6.1
2018-06-24T03:03:48.854Z,6.1
2018-06-24T03:04:38.637Z,6.1
2018-06-24T03:05:28.991Z,6.1
2018-06-24T03:06:18.775Z,6.1
2018-06-24T03:07:09.121Z,6.1
2018-06-24T03:07:59.186Z,6.1
2018-06-24T03:08:49.234Z,6.1
2018-06-24T03:09:39.031Z,6.1
2018-06-24T03:10:29.368Z,6
2018-06-24T03:11:19.423Z,6
2018-06-24T03:12:09.225Z,6
2018-06-24T03:12:59.565Z,6
2018-06-24T03:13:49.613Z,6
2018-06-24T03:14:39.384Z,6
2018-06-24T03:15:29.740Z,5.9
2018-06-24T03:16:19.791Z,5.9
2018-06-24T03:17:09.873Z,5.9
2018-06-24T03:17:59.663Z,5.9
2018-06-24T03:18:49.910Z,5.9
2018-06-24T03:19:40.070Z,5.9
2018-06-24T03:20:30.092Z,5.9
2018-06-24T03:21:19.883Z,5.9
2018-06-24T03:22:10.222Z,5.9
2018-06-24T03:23:00.347Z,5.9
2018-06-24T03:23:50.075Z,5.9
2018-06-24T03:24:40.136Z,5.9
2018-06-24T03:25:30.625Z,5.9
2018-06-24T03:26:20.253Z,5.9
2018-06-24T03:27:10.588Z,5.9
2018-06-24T03:28:00.670Z,5.9
2018-06-24T03:28:50.705Z,5.9
2018-06-24T03:29:40.517Z,5.9
2018-06-24T03:30:30.887Z,5.9
2018-06-24T03:31:20.642Z,5.9
2018-06-24T03:32:11.007Z,5.9
2018-06-24T03:33:01.029Z,5.9
2018-06-24T03:33:51.084Z,5.9
2018-06-24T03:34:41.148Z,5.9
2018-06-24T03:35:31.218Z,5.9
2018-06-24T03:36:21.271Z,5.9
2018-06-24T03:37:11.072Z,5.9
2018-06-24T03:38:01.413Z,5.9
2018-06-24T03:38:51.466Z,5.9
2018-06-24T03:39:41.520Z,5.9
2018-06-24T03:40:31.592Z,5.9
2018-06-24T03:41:21.696Z,5.9
2018-06-24T03:42:11.706Z,5.9
2018-06-24T03:43:01.774Z,5.9
2018-06-24T03:43:51.834Z,5.9
2018-06-24T03:44:41.890Z,5.9
2018-06-24T03:45:31.950Z,5.9
2018-06-24T03:46:21.758Z,5.9
2018-06-24T03:47:12.094Z,5.9
2018-06-24T03:48:02.152Z,5.9
2018-06-24T03:48:52.260Z,5.9
2018-06-24T03:49:41.998Z,5.9
2018-06-24T03:50:32.343Z,5.9
2018-06-24T03:51:21.847Z,5.9
2018-06-24T03:52:12.458Z,5.9
2018-06-24T03:53:02.555Z,5.9
2018-06-24T03:53:52.369Z,5.9
2018-06-24T03:54:42.674Z,5.9
2018-06-24T03:55:32.442Z,6
2018-06-24T03:56:22.506Z,5.9
2018-06-24T03:57:12.835Z,6
2018-06-24T03:58:02.697Z,6
2018-06-24T03:58:52.403Z,6
2018-06-24T03:59:43.019Z,6
2018-06-24T04:00:33.081Z,6
2018-06-24T04:01:23.149Z,6
2018-06-24T04:02:12.930Z,6
2018-06-24T04:03:03.280Z,6.1
2018-06-24T04:03:53.357Z,6.1
2018-06-24T04:04:43.641Z,6.1
2018-06-24T04:05:33.198Z,6.1
2018-06-24T04:06:23.260Z,6.1
2018-06-24T04:07:13.602Z,6.1
2018-06-24T04:08:03.692Z,6.1
2018-06-24T04:08:53.719Z,6.2
2018-06-24T04:09:43.799Z,6.2
2018-06-24T04:10:33.852Z,6.2
2018-06-24T04:11:23.907Z,6.3
2018-06-24T04:12:13.669Z,6.3
2018-06-24T04:13:03.749Z,6.3
2018-06-24T04:13:54.074Z,6.3
2018-06-24T04:14:44.162Z,6.3
2018-06-24T04:15:33.938Z,6.4
2018-06-24T04:16:24.307Z,6.4
2018-06-24T04:17:14.328Z,6.4
2018-06-24T04:18:04.120Z,6.4
2018-06-24T04:18:54.448Z,6.5
2018-06-24T04:19:44.559Z,6.5
2018-06-24T04:20:34.573Z,6.6
2018-06-24T04:21:24.631Z,6.6
2018-06-24T04:22:14.505Z,6.7
2018-06-24T04:23:04.772Z,6.8
2018-06-24T04:23:54.822Z,6.8
2018-06-24T04:24:44.899Z,6.9
2018-06-24T04:25:34.947Z,6.9
2018-06-24T04:26:25.018Z,7
2018-06-24T04:27:15.074Z,7.1
2018-06-24T04:28:05.139Z,7.1
2018-06-24T04:28:55.230Z,7.2
2018-06-24T04:29:45.256Z,7.3
2018-06-24T04:30:35.325Z,7.4
2018-06-24T04:31:25.126Z,7.5
2018-06-24T04:32:15.473Z,7.6
2018-06-24T04:33:05.254Z,7.7
2018-06-24T04:33:55.288Z,7.8
2018-06-24T04:34:45.640Z,7.9
2018-06-24T04:35:35.724Z,8
2018-06-24T04:36:25.492Z,8.1
2018-06-24T04:37:15.264Z,8.2
2018-06-24T04:38:05.883Z,8.3
2018-06-24T04:38:55.987Z,8.4
2018-06-24T04:39:46.020Z,8.5
2018-06-24T04:40:35.798Z,8.6
2018-06-24T04:41:26.140Z,8.7
2018-06-24T04:42:15.357Z,8.8
2018-06-24T04:43:05.974Z,8.8
2018-06-24T04:43:56.056Z,8.9
2018-06-24T04:44:46.389Z,8.9
2018-06-24T04:45:36.459Z,9.1
2018-06-24T04:46:26.532Z,9.1
2018-06-24T04:47:16.586Z,9.2
2018-06-24T04:48:06.632Z,9.3
2018-06-24T04:48:56.697Z,9.3
2018-06-24T04:49:46.774Z,9.4
2018-06-24T04:50:36.823Z,9.5
2018-06-24T04:51:26.599Z,9.6
2018-06-24T04:52:16.944Z,9.6
2018-06-24T04:53:07.024Z,9.7
2018-06-24T04:53:57.063Z,9.8
2018-06-24T04:54:46.852Z,9.9
2018-06-24T04:55:37.219Z,9.9
2018-06-24T04:56:27.264Z,10.1
2018-06-24T04:57:17.335Z,10.1
2018-06-24T04:58:07.111Z,10.3
2018-06-24T04:58:57.448Z,10.3
2018-06-24T04:59:47.505Z,10.5
2018-06-24T05:00:37.591Z,10.6
2018-06-24T05:01:27.656Z,10.7
2018-06-24T05:02:17.412Z,10.9
2018-06-24T05:03:07.774Z,11
2018-06-24T05:03:57.839Z,11.1
2018-06-24T05:04:47.887Z,11.3
2018-06-24T05:05:37.959Z,11.4
2018-06-24T05:06:28.300Z,11.6
2018-06-24T05:07:18.074Z,11.8
2018-06-24T05:08:08.132Z,11.9
2018-06-24T05:08:57.935Z,12.1
2018-06-24T05:09:48.273Z,12.3
2018-06-24T05:10:38.332Z,12.4
2018-06-24T05:11:28.106Z,12.6
2018-06-24T05:12:18.443Z,12.8
2018-06-24T05:13:08.518Z,12.9
2018-06-24T05:13:58.596Z,13.1
2018-06-24T05:14:48.687Z,13.3
2018-06-24T05:15:38.695Z,13.6
2018-06-24T05:16:28.756Z,13.8
2018-06-24T05:17:18.826Z,13.9
2018-06-24T05:18:08.887Z,14.1
2018-06-24T05:18:58.397Z,14.4
2018-06-24T05:19:49.003Z,14.6
2018-06-24T05:20:39.091Z,14.8
2018-06-24T05:21:29.133Z,15.1
2018-06-24T05:22:19.218Z,15.3
2018-06-24T05:23:09.268Z,15.6
2018-06-24T05:23:59.317Z,15.8
2018-06-24T05:24:49.391Z,16
2018-06-24T05:25:39.444Z,16.3
2018-06-24T05:26:29.518Z,16.5
2018-06-24T05:27:19.571Z,16.8
2018-06-24T05:28:09.346Z,17.1
2018-06-24T05:28:59.438Z,17.3
2018-06-24T05:29:49.510Z,17.6
2018-06-24T05:30:39.840Z,17.9
2018-06-24T05:31:29.882Z,18.2
2018-06-24T05:32:19.950Z,18.4
2018-06-24T05:33:10.018Z,18.8
2018-06-24T05:34:00.089Z,19
2018-06-24T05:34:49.859Z,19.3
2018-06-24T05:35:40.191Z,19.6
2018-06-24T05:36:30.264Z,19.9
2018-06-24T05:37:20.343Z,20.3
2018-06-24T05:38:10.401Z,20.6
2018-06-24T05:39:00.442Z,20.9
2018-06-24T05:40:40.569Z,21.5
2018-06-24T05:41:30.338Z,21.8
2018-06-24T05:42:20.738Z,22.1
2018-06-24T05:43:11.086Z,22.4
2018-06-24T05:44:00.536Z,22.8
2018-06-24T05:44:50.871Z,23.1
2018-06-24T05:45:40.949Z,23.4
2018-06-24T05:46:30.739Z,23.8
2018-06-24T05:47:21.067Z,24.1
2018-06-24T05:48:11.137Z,24.4
2018-06-24T05:49:01.210Z,23.3
2018-06-24T05:49:51.255Z,14.9
2018-06-24T05:50:41.320Z,21.4
2018-06-24T05:51:31.112Z,27.5
2018-06-24T05:52:21.178Z,28.1
2018-06-24T05:53:11.231Z,30.6
2018-06-24T05:54:01.566Z,31.2
2018-06-24T05:54:51.636Z,31.3
2018-06-24T05:55:41.702Z,31.3
2018-06-24T05:56:31.754Z,30.9
2018-06-24T05:57:21.824Z,30.6
2018-06-24T05:58:11.616Z,30.4
2018-06-24T05:59:01.953Z,30.3
2018-06-24T05:59:52.003Z,30.1
2018-06-24T06:00:42.065Z,30.1
2018-06-24T06:01:32.131Z,30.1
2018-06-24T06:02:22.211Z,30
2018-06-24T06:03:12.259Z,30
2018-06-24T06:04:02.341Z,30
2018-06-24T06:04:52.401Z,30.1
2018-06-24T06:05:42.183Z,30.2
2018-06-24T06:06:32.525Z,30.2
2018-06-24T06:07:22.587Z,30.2
2018-06-24T06:08:12.629Z,30.2
2018-06-24T06:09:02.704Z,32.2
2018-06-24T06:09:52.499Z,33.4
2018-06-24T06:10:42.555Z,33.4
2018-06-24T06:11:32.907Z,33.2
2018-06-24T06:12:22.973Z,32.9
2018-06-24T06:13:13.014Z,32.8
2018-06-24T06:14:03.076Z,32.9
2018-06-24T06:14:53.147Z,33.1
2018-06-24T06:15:42.913Z,33.4
2018-06-24T06:16:33.254Z,33.6
2018-06-24T06:17:23.333Z,33.7
2018-06-24T06:18:13.383Z,33.8
2018-06-24T06:19:03.448Z,33.9
2018-06-24T06:19:53.509Z,34
2018-06-24T06:20:43.285Z,34.1
2018-06-24T06:21:33.633Z,34.3
2018-06-24T06:22:23.709Z,34.4
2018-06-24T06:23:13.484Z,34.5
2018-06-24T06:24:03.856Z,34.6
2018-06-24T06:24:53.878Z,34.8
2018-06-24T06:25:43.941Z,34.9
2018-06-24T06:26:34.006Z,35
2018-06-24T06:27:24.083Z,35.1
2018-06-24T06:28:13.856Z,35.3
2018-06-24T06:29:03.971Z,35.4
2018-06-24T06:29:54.270Z,35.5
2018-06-24T06:30:44.041Z,35.6
2018-06-24T06:31:34.380Z,35.7
2018-06-24T06:32:24.460Z,35.8
2018-06-24T06:33:14.247Z,35.9
2018-06-24T06:34:04.311Z,36.1
2018-06-24T06:34:54.632Z,36.2
2018-06-24T06:35:44.697Z,36.3
2018-06-24T06:36:34.782Z,36.4
2018-06-24T06:37:24.826Z,36.6
2018-06-24T06:38:14.906Z,36.7
2018-06-24T06:39:04.666Z,36.8
2018-06-24T06:39:55.031Z,36.9
2018-06-24T06:40:45.092Z,37.1
2018-06-24T06:41:35.138Z,37.2
2018-06-24T06:42:25.216Z,37.3
2018-06-24T06:43:14.986Z,37.4
2018-06-24T06:44:05.319Z,37.6
2018-06-24T06:44:55.727Z,37.7
2018-06-24T06:45:46.957Z,37.8
2018-06-24T06:46:35.510Z,37.9
2018-06-24T06:47:25.583Z,38
2018-06-24T06:48:15.662Z,38.1
2018-06-24T06:49:05.706Z,38.3
2018-06-24T06:49:55.490Z,38.3
2018-06-24T06:50:45.851Z,38.4
2018-06-24T06:51:35.892Z,38.6
2018-06-24T06:52:25.409Z,38.7
2018-06-24T06:53:16.034Z,38.8
2018-06-24T06:54:06.095Z,38.9
2018-06-24T06:54:56.165Z,39
2018-06-24T06:55:46.225Z,39.1
2018-06-24T06:56:35.994Z,39.3
2018-06-24T06:57:26.077Z,39.4
2018-06-24T06:58:16.413Z,39.4
2018-06-24T06:59:06.179Z,39.6
2018-06-24T06:59:56.547Z,39.7
2018-06-24T07:00:46.597Z,39.8
2018-06-24T07:01:36.660Z,40
2018-06-24T07:02:26.710Z,40.1
2018-06-24T07:03:16.911Z,40.2
2018-06-24T07:04:06.842Z,40.3
2018-06-24T07:04:56.904Z,40.4
2018-06-24T07:05:46.779Z,40.6
2018-06-24T07:06:37.028Z,40.7
2018-06-24T07:07:27.109Z,40.8
2018-06-24T07:08:17.212Z,40.9
2018-06-24T07:09:07.211Z,41.1
2018-06-24T07:09:57.281Z,41.2
2018-06-24T07:10:47.367Z,41.3
2018-06-24T07:11:36.941Z,41.4
2018-06-24T07:12:27.191Z,41.5
2018-06-24T07:13:17.539Z,41.6
2018-06-24T07:14:07.592Z,41.8
2018-06-24T07:14:57.657Z,41.9
2018-06-24T07:15:47.749Z,42
2018-06-24T07:16:37.524Z,42.1
2018-06-24T07:17:27.873Z,42.3
2018-06-24T07:18:17.676Z,42.4
2018-06-24T07:19:07.984Z,42.4
2018-06-24T07:19:58.051Z,42.6
2018-06-24T07:20:48.128Z,42.8
2018-06-24T07:21:38.235Z,42.8
2018-06-24T07:22:28.245Z,42.9
2018-06-24T07:23:18.058Z,43.1
2018-06-24T07:24:08.368Z,43.2
2018-06-24T07:24:57.865Z,43.3
2018-06-24T07:25:48.483Z,43.4
2018-06-24T07:26:38.548Z,43.6
2018-06-24T07:27:28.608Z,43.7
2018-06-24T07:28:18.668Z,43.8
2018-06-24T07:29:08.455Z,43.9
2018-06-24T07:29:58.794Z,44.1
2018-06-24T07:30:48.863Z,44.3
2018-06-24T07:31:38.933Z,44.3
2018-06-24T07:32:29.007Z,44.5
2018-06-24T07:33:18.959Z,44.6
2018-06-24T07:34:08.850Z,44.8
2018-06-24T07:34:59.200Z,44.9
2018-06-24T07:35:49.252Z,45.1
2018-06-24T07:36:39.296Z,45.2
2018-06-24T07:37:29.381Z,45.3
2018-06-24T07:38:19.162Z,45.4
2018-06-24T07:39:09.645Z,45.5
2018-06-24T07:39:59.269Z,45.6
2018-06-24T07:40:49.622Z,45.8
2018-06-24T07:41:39.678Z,45.9
2018-06-24T07:42:29.744Z,46.1
2018-06-24T07:43:19.800Z,46.2
2018-06-24T07:44:09.863Z,46.3
2018-06-24T07:44:59.925Z,46.4
2018-06-24T07:45:50.010Z,46.6
2018-06-24T07:46:40.102Z,46.8
2018-06-24T07:47:29.867Z,46.9
2018-06-24T07:48:20.190Z,47
2018-06-24T07:49:10.237Z,47.1
2018-06-24T07:50:00.047Z,47.3
2018-06-24T07:50:50.101Z,47.4
2018-06-24T07:51:40.173Z,47.5
2018-06-24T07:52:30.505Z,47.6
2018-06-24T07:53:20.301Z,47.6
2018-06-24T07:54:10.637Z,47.6
2018-06-24T07:55:00.428Z,47.5
2018-06-24T07:55:50.753Z,47.3
2018-06-24T07:56:40.817Z,47.2
2018-06-24T07:57:30.813Z,47.4
2018-06-24T07:58:20.938Z,47.8
2018-06-24T07:59:11.011Z,48.1
2018-06-24T08:00:00.784Z,48.4
2018-06-24T08:00:51.161Z,48.5
2018-06-24T08:01:40.936Z,48.7
2018-06-24T08:02:31.256Z,48.9
2018-06-24T08:03:21.627Z,49.1
2018-06-24T08:04:11.382Z,49.2
2018-06-24T08:05:01.166Z,49.3
2018-06-24T08:05:51.510Z,49.2
2018-06-24T08:06:41.570Z,49.1
2018-06-24T08:07:31.648Z,48.9
2018-06-24T08:08:21.700Z,48.8
2018-06-24T08:09:11.769Z,48.8
2018-06-24T08:10:01.552Z,48.9
2018-06-24T08:10:51.903Z,49.1
2018-06-24T08:11:41.965Z,49.4
2018-06-24T08:12:32.015Z,49.7
2018-06-24T08:13:22.179Z,49.9
2018-06-24T08:14:12.140Z,50.1
2018-06-24T08:15:02.216Z,50.2
2018-06-24T08:15:52.267Z,50.3
2018-06-24T08:16:42.355Z,50.4
2018-06-24T08:17:32.407Z,50.6
2018-06-24T08:18:22.463Z,50.8
2018-06-24T08:19:12.525Z,50.8
2018-06-24T08:20:02.605Z,50.9
2018-06-24T08:20:52.644Z,51.1
2018-06-24T08:21:42.702Z,51.2
2018-06-24T08:22:32.497Z,51.3
2018-06-24T08:23:22.841Z,51.4
2018-06-24T08:24:12.622Z,51.5
2018-06-24T08:25:02.981Z,51.7
2018-06-24T08:25:53.025Z,51.8
2018-06-24T08:26:43.081Z,51.9
2018-06-24T08:28:22.960Z,52
2018-06-24T08:29:13.012Z,52.1
2018-06-24T08:30:03.352Z,52.3
2018-06-24T08:30:53.404Z,52.3
2018-06-24T08:32:33.265Z,52.5
2018-06-24T08:33:23.048Z,52.6
2018-06-24T08:34:13.654Z,52.6
2018-06-24T08:35:03.722Z,52.8
2018-06-24T08:35:53.515Z,52.8
2018-06-24T08:36:43.856Z,52.9
2018-06-24T08:37:33.638Z,53
2018-06-24T08:38:23.688Z,52.9
2018-06-24T08:39:13.769Z,52.9
2018-06-24T08:40:04.120Z,53.1
2018-06-24T08:40:53.910Z,53.3
2018-06-24T08:41:44.236Z,53.4
2018-06-24T08:42:34.307Z,53.5
2018-06-24T08:43:24.087Z,53.6
2018-06-24T08:44:14.423Z,53.7
2018-06-24T08:45:04.486Z,53.8
2018-06-24T08:45:54.551Z,53.9
2018-06-24T08:46:44.628Z,53.9
2018-06-24T08:47:34.693Z,54
2018-06-24T08:48:24.477Z,54.1
2018-06-24T08:49:14.830Z,54.2
2018-06-24T08:50:04.866Z,54.3
2018-06-24T08:50:54.925Z,54.4
2018-06-24T08:51:44.714Z,54.5
2018-06-24T08:52:34.777Z,54.6
2018-06-24T08:53:24.840Z,54.6
2018-06-24T08:54:15.066Z,54.6
2018-06-24T08:55:05.262Z,54.8
2018-06-24T08:55:55.060Z,54.9
2018-06-24T08:56:45.398Z,54.9
2018-06-24T08:57:35.167Z,54.9
2018-06-24T08:58:25.519Z,55
2018-06-24T08:59:15.598Z,55.1
2018-06-24T09:00:05.348Z,55.3
2018-06-24T09:00:55.705Z,55.4
2018-06-24T09:01:45.755Z,55.5
2018-06-24T09:02:35.819Z,55.6
2018-06-24T09:03:25.607Z,55.7
2018-06-24T09:04:15.945Z,55.8
2018-06-24T09:05:06.033Z,55.8
2018-06-24T09:05:55.794Z,55.9
2018-06-24T09:06:45.582Z,55.9
2018-06-24T09:07:36.192Z,55.9
2018-06-24T09:08:26.286Z,56.1
2018-06-24T09:09:16.334Z,56.3
2018-06-24T09:10:06.382Z,56.3
2018-06-24T09:10:56.452Z,56.3
2018-06-24T09:11:46.512Z,56.4
2018-06-24T09:12:36.587Z,56.4
2018-06-24T09:13:26.652Z,56.5
2018-06-24T09:14:16.466Z,56.6
